Dunsford, Canada
Current Conditions -  °F | °C
As of 10:00 PM on Wednesday 26 Nov 2014 (Local Time) from CYPQ Reporting Station
Overcast Overcast  
Wind Chill: 19°   Ceiling: 3300
Heat Index: 27°   Visibility: 9mi
Dew Point: 19°   Wind: 7mph
Humidity: 74%   Direction: 30°NNE
Pressure: 30.1"   Gusts: NA
Location:  44.45°N, 78.63°W
Report Text: CYPQ 270300Z AUTO 03006KT 9SM OVC033 M03/M07 A3010 RMK SLP201
Loading
Personal Weather Stations






























Interactive Weather Map New forecast layout! Learn more

10-Day Weather Forecast

Advertisements
Track Severe Weather on mobile